Time;durP1;ratioP1;P1;durP2;ratioP2;P2;SDS_P1;SDS_P2;PMS_P1;PMS_P2;Temp;Humidity;BMP_temperature;BMP_pressure;BME280_temperature;BME280_humidity;BME280_pressure;Samples;Min_cycle;Max_cycle;Signal;HPM_P1;HPM_P2
2022/04/19 00:00:37;;;;;;;25.02;21.33;;;16.70;61.80;;;;;;4994390;28;20172;-63
2022/04/19 00:03:05;;;;;;;25.35;22.65;;;16.70;61.80;;;;;;4994069;28;20403;-62
2022/04/19 00:05:32;;;;;;;23.77;21.27;;;16.70;62.00;;;;;;4994636;28;20025;-64
2022/04/19 00:07:59;;;;;;;23.20;20.85;;;16.70;62.30;;;;;;4994279;28;20038;-65
2022/04/19 00:10:28;;;;;;;24.05;21.55;;;16.70;62.50;;;;;;4994491;28;20065;-53
2022/04/19 00:12:58;;;;;;;24.42;21.77;;;16.60;62.60;;;;;;4994002;28;20030;-52
2022/04/19 00:15:27;;;;;;;24.70;22.15;;;16.60;62.70;;;;;;4994331;28;20476;-65
2022/04/19 00:17:54;;;;;;;25.75;23.13;;;16.60;62.70;;;;;;4994010;28;20033;-65
2022/04/19 00:20:21;;;;;;;24.45;21.85;;;16.60;62.60;;;;;;4994078;28;20038;-55
2022/04/19 00:22:48;;;;;;;24.13;21.63;;;16.60;63.40;;;;;;4994193;28;20395;-63
2022/04/19 00:25:13;;;;;;;24.17;21.48;;;16.60;63.00;;;;;;4994136;28;20057;-65
2022/04/19 00:27:39;;;;;;;25.27;22.52;;;16.60;63.10;;;;;;4993967;28;20074;-65
2022/04/19 00:30:06;;;;;;;26.17;23.42;;;16.60;63.30;;;;;;4993923;28;20014;-53
2022/04/19 00:32:31;;;;;;;25.42;22.83;;;16.60;63.30;;;;;;4993619;28;20034;-54
2022/04/19 00:34:59;;;;;;;25.17;22.48;;;16.50;63.50;;;;;;4993928;28;20026;-62
2022/04/19 00:37:25;;;;;;;26.58;22.98;;;16.50;63.20;;;;;;4994022;28;20464;-60
2022/04/19 00:39:51;;;;;;;27.00;23.13;;;16.50;63.60;;;;;;4993846;28;20065;-53
2022/04/19 00:42:17;;;;;;;26.80;23.83;;;16.50;63.40;;;;;;4993756;28;20034;-64
2022/04/19 00:44:43;;;;;;;26.63;23.92;;;16.40;63.50;;;;;;4994030;28;20022;-63
2022/04/19 00:47:11;;;;;;;28.08;25.15;;;16.40;63.50;;;;;;4993386;28;20065;-63
2022/04/19 00:49:38;;;;;;;27.13;24.23;;;16.40;63.50;;;;;;4993691;28;20030;-65
2022/04/19 00:52:05;;;;;;;28.33;25.23;;;16.40;63.80;;;;;;4993927;28;20448;-53
2022/04/19 00:54:32;;;;;;;29.02;26.02;;;16.40;63.80;;;;;;4993741;28;20062;-65
2022/04/19 00:56:58;;;;;;;27.38;24.52;;;16.30;64.60;;;;;;4993592;28;20026;-61
2022/04/19 00:59:24;;;;;;;29.13;26.05;;;16.30;63.90;;;;;;4993276;28;20109;-65
2022/04/19 01:01:50;;;;;;;29.52;26.40;;;16.30;64.10;;;;;;4993926;28;20135;-62
2022/04/19 01:04:16;;;;;;;30.15;26.98;;;16.30;64.30;;;;;;4993622;28;20488;-64
2022/04/19 01:06:42;;;;;;;30.33;27.23;;;16.30;64.60;;;;;;4993603;28;20031;-52
2022/04/19 01:09:08;;;;;;;31.08;27.77;;;16.30;64.50;;;;;;4993547;28;20027;-63
2022/04/19 01:14:19;;;;;;;29.58;26.42;;;16.20;64.80;;;;;;4993329;28;20418;-65
2022/04/19 01:16:45;;;;;;;30.83;27.40;;;16.20;65.00;;;;;;4993592;28;20022;-63
2022/04/19 01:19:16;;;;;;;29.85;26.85;;;16.20;65.20;;;;;;4993336;28;20098;-60
2022/04/19 01:21:49;;;;;;;31.73;28.60;;;16.20;65.50;;;;;;4993460;28;20387;-65
2022/04/19 01:24:18;;;;;;;36.58;28.40;;;16.20;65.40;;;;;;4993176;28;20491;-64
2022/04/19 01:26:45;;;;;;;32.67;29.40;;;16.10;65.60;;;;;;4993510;28;20023;-64
2022/04/19 01:29:12;;;;;;;32.63;29.15;;;16.10;65.50;;;;;;4993169;28;20044;-65
2022/04/19 01:31:40;;;;;;;31.25;28.15;;;16.10;65.70;;;;;;4993412;28;20053;-65
2022/04/19 01:34:07;;;;;;;31.48;28.20;;;16.10;66.00;;;;;;4993365;28;20034;-57
2022/04/19 01:36:37;;;;;;;31.60;28.48;;;16.10;66.00;;;;;;4993882;28;20026;-53
2022/04/19 01:39:07;;;;;;;31.77;28.58;;;16.10;66.10;;;;;;4997066;28;20022;-60
2022/04/19 01:41:34;;;;;;;33.05;29.67;;;16.00;66.30;;;;;;4997145;28;20026;-55
2022/04/19 01:43:59;;;;;;;31.08;27.88;;;16.00;66.30;;;;;;4996846;28;20025;-55
2022/04/19 01:46:27;;;;;;;31.00;27.92;;;16.00;66.30;;;;;;4996960;28;20026;-54
2022/04/19 01:48:56;;;;;;;31.75;28.58;;;16.00;66.50;;;;;;4996840;28;20039;-54
2022/04/19 01:51:22;;;;;;;32.78;29.55;;;16.00;66.60;;;;;;4997026;28;20019;-57
2022/04/19 01:53:51;;;;;;;32.90;29.50;;;16.00;66.90;;;;;;4996983;28;20092;-65
2022/04/19 01:56:17;;;;;;;31.92;28.73;;;15.90;67.10;;;;;;4996679;28;20029;-65
2022/04/19 01:58:43;;;;;;;31.88;28.67;;;16.00;67.20;;;;;;4996766;28;20023;-62
2022/04/19 02:01:09;;;;;;;32.05;28.85;;;15.90;66.90;;;;;;4996657;28;20023;-63
2022/04/19 02:03:35;;;;;;;31.30;28.20;;;15.90;67.10;;;;;;4996577;28;20109;-52
2022/04/19 02:06:02;;;;;;;32.42;29.02;;;15.90;67.30;;;;;;4996568;28;20071;-54
2022/04/19 02:08:29;;;;;;;32.05;28.42;;;15.90;67.60;;;;;;4996679;28;20038;-64
2022/04/19 02:10:54;;;;;;;31.42;28.27;;;15.80;67.80;;;;;;4996553;28;20461;-55
2022/04/19 02:13:20;;;;;;;33.35;29.95;;;15.80;68.10;;;;;;4996504;28;20050;-53
2022/04/19 02:15:46;;;;;;;33.17;29.83;;;15.80;68.00;;;;;;4996486;28;20023;-61
2022/04/19 02:18:12;;;;;;;34.08;30.67;;;15.80;68.20;;;;;;4996234;28;20038;-61
2022/04/19 02:20:38;;;;;;;36.45;32.72;;;15.80;68.30;;;;;;4996316;28;20034;-65
2022/04/19 02:23:04;;;;;;;33.15;29.80;;;15.70;68.20;;;;;;4996516;28;20439;-65
2022/04/19 02:25:30;;;;;;;35.78;31.95;;;15.70;68.50;;;;;;4996401;28;20464;-63
2022/04/19 02:27:55;;;;;;;36.65;32.92;;;15.70;68.60;;;;;;4995793;28;20041;-58
2022/04/19 02:30:21;;;;;;;35.38;31.70;;;15.70;68.60;;;;;;4996296;28;20105;-65
2022/04/19 02:32:48;;;;;;;37.33;33.50;;;15.60;68.70;;;;;;4995946;28;20023;-65
2022/04/19 02:35:17;;;;;;;36.22;32.47;;;15.60;68.80;;;;;;4996308;28;20088;-65
2022/04/19 02:37:51;;;;;;;36.15;32.40;;;15.70;69.00;;;;;;4996170;28;20034;-65
2022/04/19 02:40:18;;;;;;;35.08;31.67;;;15.60;69.00;;;;;;4995930;28;20026;-65
2022/04/19 02:42:44;;;;;;;35.60;31.90;;;15.60;69.20;;;;;;4995667;28;20077;-61
2022/04/19 02:45:09;;;;;;;35.30;31.73;;;15.60;69.40;;;;;;4995920;28;20030;-65
2022/04/19 02:47:35;;;;;;;35.10;31.55;;;15.60;69.30;;;;;;4995503;28;20433;-61
2022/04/19 02:50:01;;;;;;;35.92;32.30;;;15.60;69.50;;;;;;4995371;28;20535;-65
2022/04/19 02:52:27;;;;;;;36.53;32.90;;;15.50;69.40;;;;;;4995709;28;20029;-64
2022/04/19 02:54:53;;;;;;;35.63;31.92;;;15.50;69.60;;;;;;4995959;28;20023;-65
2022/04/19 02:57:18;;;;;;;35.53;31.92;;;15.60;69.80;;;;;;4995526;28;20018;-65
2022/04/19 02:59:44;;;;;;;36.40;32.60;;;15.50;70.00;;;;;;4995616;28;20026;-65
2022/04/19 03:02:09;;;;;;;35.80;32.22;;;15.50;70.00;;;;;;4995520;28;20027;-62
2022/04/19 03:04:35;;;;;;;35.75;32.25;;;15.50;70.30;;;;;;4995725;28;20022;-64
2022/04/19 03:07:01;;;;;;;35.83;31.95;;;15.50;70.40;;;;;;4995398;28;20487;-54
2022/04/19 03:09:26;;;;;;;36.40;32.78;;;15.40;70.40;;;;;;4995768;28;20022;-64
2022/04/19 03:11:52;;;;;;;36.97;32.80;;;15.40;70.30;;;;;;4994959;28;20023;-51
2022/04/19 03:14:18;;;;;;;35.97;32.25;;;15.40;70.40;;;;;;4995351;28;20461;-56
2022/04/19 03:16:43;;;;;;;36.65;32.90;;;15.40;70.70;;;;;;4995340;28;20029;-55
2022/04/19 03:19:09;;;;;;;36.17;32.55;;;15.40;70.70;;;;;;4995249;28;20038;-65
2022/04/19 03:21:34;;;;;;;36.92;33.03;;;15.40;71.00;;;;;;4995428;28;20054;-65
2022/04/19 03:29:28;;;;;;;36.67;32.97;;;15.30;71.20;;;;;;4995538;28;20096;-65
2022/04/19 03:31:54;;;;;;;47.00;36.45;;;15.30;71.30;;;;;;4988896;28;20022;-61
2022/04/19 03:34:20;;;;;;;38.72;34.83;;;15.30;71.50;;;;;;4986093;28;20396;-65
2022/04/19 03:36:46;;;;;;;38.17;34.00;;;15.20;71.50;;;;;;4975529;28;20019;-64
2022/04/19 03:39:11;;;;;;;37.58;33.97;;;15.20;71.40;;;;;;4974998;28;20117;-56
2022/04/19 03:41:37;;;;;;;37.95;34.10;;;15.20;71.70;;;;;;4975393;28;20027;-64
2022/04/19 03:44:02;;;;;;;37.08;33.28;;;15.20;71.80;;;;;;4975188;28;20031;-64
2022/04/19 03:46:28;;;;;;;36.45;32.80;;;15.10;71.70;;;;;;4975313;28;20026;-64
2022/04/19 03:48:53;;;;;;;38.67;35.03;;;15.10;72.20;;;;;;4975150;28;20035;-64
2022/04/19 03:51:19;;;;;;;37.55;33.58;;;15.10;72.10;;;;;;4975146;28;20415;-64
2022/04/19 03:53:46;;;;;;;37.38;33.28;;;15.10;72.30;;;;;;4974797;28;20511;-64
2022/04/19 03:56:12;;;;;;;35.60;32.10;;;15.10;72.40;;;;;;4975239;28;20039;-64
2022/04/19 03:58:37;;;;;;;37.80;33.80;;;15.10;72.50;;;;;;4975019;28;20029;-62
2022/04/19 04:01:03;;;;;;;38.53;34.75;;;15.10;72.60;;;;;;4974604;28;20538;-64
2022/04/19 04:03:29;;;;;;;38.65;34.58;;;15.10;72.70;;;;;;4974959;28;20058;-63
2022/04/19 04:05:57;;;;;;;39.47;35.47;;;15.00;72.60;;;;;;4974761;28;20015;-60
2022/04/19 04:08:23;;;;;;;38.40;34.58;;;15.00;72.70;;;;;;4974114;28;20034;-64
2022/04/19 04:10:50;;;;;;;38.78;35.03;;;15.00;72.90;;;;;;4975143;28;20027;-64
2022/04/19 04:13:15;;;;;;;40.63;36.45;;;14.90;73.10;;;;;;4974822;28;20035;-64
2022/04/19 04:15:41;;;;;;;38.13;34.42;;;15.00;73.00;;;;;;4974888;28;20026;-64
2022/04/19 04:18:08;;;;;;;36.75;33.05;;;15.00;72.70;;;;;;4974576;28;20480;-61
2022/04/19 04:20:34;;;;;;;36.33;32.78;;;14.90;72.70;;;;;;4974792;28;20093;-54
2022/04/19 04:23:00;;;;;;;38.30;34.15;;;14.90;72.70;;;;;;4974429;28;20027;-63
2022/04/19 04:25:26;;;;;;;37.17;33.30;;;14.90;72.60;;;;;;4974804;28;20026;-58
2022/04/19 04:27:51;;;;;;;36.58;32.53;;;14.90;72.60;;;;;;4974806;28;20400;-64
2022/04/19 04:30:17;;;;;;;38.30;33.92;;;14.90;72.80;;;;;;4974341;28;20027;-53
2022/04/19 04:32:42;;;;;;;36.22;32.45;;;14.90;72.80;;;;;;4974635;28;20033;-54
2022/04/19 04:35:09;;;;;;;38.67;34.42;;;14.90;72.80;;;;;;4974474;28;20058;-60
2022/04/19 04:37:34;;;;;;;37.97;34.15;;;14.80;72.90;;;;;;4974177;28;20026;-57
2022/04/19 04:40:00;;;;;;;40.85;35.33;;;14.80;73.30;;;;;;4974546;28;20357;-58
2022/04/19 04:42:25;;;;;;;38.42;34.65;;;14.80;73.50;;;;;;4974142;28;20495;-64
2022/04/19 04:44:51;;;;;;;38.78;34.67;;;14.80;73.50;;;;;;4974446;28;20030;-55
2022/04/19 04:50:01;;;;;;;39.53;35.42;;;14.80;73.70;;;;;;4974432;28;20471;-64
2022/04/19 04:52:27;;;;;;;38.17;34.35;;;14.70;74.10;;;;;;4974055;28;20113;-65
2022/04/19 04:54:53;;;;;;;38.25;34.15;;;14.80;74.50;;;;;;4974331;28;20069;-55
2022/04/19 04:57:21;;;;;;;39.60;35.50;;;14.70;74.50;;;;;;4974290;28;20026;-56
2022/04/19 04:59:48;;;;;;;38.88;34.67;;;14.70;74.80;;;;;;4974189;28;20378;-64
2022/04/19 05:02:14;;;;;;;38.67;34.80;;;14.70;74.90;;;;;;4984298;28;20396;-57
2022/04/19 05:04:40;;;;;;;40.70;36.55;;;14.70;75.00;;;;;;4978004;28;20023;-65
2022/04/19 05:07:05;;;;;;;41.35;37.00;;;14.80;75.00;;;;;;4973731;28;20041;-61
2022/04/19 05:09:31;;;;;;;43.15;38.60;;;14.80;75.20;;;;;;4973928;28;20033;-54
2022/04/19 05:11:57;;;;;;;43.25;38.97;;;14.80;75.40;;;;;;4975292;28;20077;-54
2022/04/19 05:14:22;;;;;;;43.63;39.08;;;14.70;75.70;;;;;;4984851;28;20090;-55
2022/04/19 05:16:48;;;;;;;41.08;37.00;;;14.70;76.20;;;;;;4992183;28;20077;-54
2022/04/19 05:19:14;;;;;;;44.90;40.20;;;14.70;76.30;;;;;;4993946;28;20034;-63
2022/04/19 05:21:40;;;;;;;41.75;37.65;;;14.70;76.70;;;;;;4990802;28;20026;-61
2022/04/19 05:24:06;;;;;;;42.80;38.60;;;14.70;77.00;;;;;;4981273;28;20030;-64
2022/04/19 05:26:32;;;;;;;41.33;37.13;;;14.70;77.00;;;;;;4991430;28;20026;-53
2022/04/19 05:28:58;;;;;;;43.03;38.55;;;14.70;77.30;;;;;;4996088;28;20038;-55
2022/04/19 05:31:24;;;;;;;44.22;39.83;;;14.80;77.40;;;;;;4992151;28;20101;-63
2022/04/19 05:33:49;;;;;;;45.88;41.17;;;14.80;78.10;;;;;;4993840;28;20472;-62
2022/04/19 05:36:15;;;;;;;44.10;39.40;;;14.70;78.00;;;;;;4988871;28;20059;-64
2022/04/19 05:38:41;;;;;;;44.85;40.47;;;14.80;78.40;;;;;;4992188;28;20031;-54
2022/04/19 05:41:06;;;;;;;41.92;37.53;;;14.70;78.90;;;;;;4991425;28;20090;-59
2022/04/19 05:43:32;;;;;;;46.70;41.75;;;14.80;78.70;;;;;;4988356;28;20476;-59
2022/04/19 05:45:58;;;;;;;44.83;40.42;;;15.10;79.00;;;;;;4972827;28;20050;-59
2022/04/19 05:48:24;;;;;;;44.08;39.53;;;15.10;79.10;;;;;;4985983;28;20114;-63
2022/04/19 05:50:50;;;;;;;45.75;40.90;;;15.10;79.40;;;;;;4993982;28;20026;-61
2022/04/19 05:53:16;;;;;;;45.95;41.28;;;15.00;79.80;;;;;;4992856;28;20472;-60
2022/04/19 05:55:42;;;;;;;47.25;42.45;;;15.10;80.90;;;;;;4989487;28;20034;-64
2022/04/19 05:58:07;;;;;;;45.05;40.60;;;15.10;81.10;;;;;;4979763;28;20042;-62
2022/04/19 06:00:33;;;;;;;46.47;41.70;;;15.20;81.20;;;;;;4984190;28;20022;-65
2022/04/19 06:05:43;;;;;;;48.13;41.13;;;15.30;80.60;;;;;;4992862;28;20041;-59
2022/04/19 06:08:09;;;;;;;44.17;39.70;;;15.40;80.20;;;;;;4990976;28;20031;-59
2022/04/19 06:10:34;;;;;;;43.67;37.38;;;15.40;79.50;;;;;;4987503;28;20034;-66
2022/04/19 06:13:00;;;;;;;40.33;36.22;;;15.40;78.90;;;;;;4992575;28;20023;-60
2022/04/19 06:15:25;;;;;;;36.72;32.90;;;15.50;78.20;;;;;;4991670;28;20026;-65
2022/04/19 06:17:51;;;;;;;38.05;32.10;;;15.50;78.20;;;;;;4990579;28;20468;-64
2022/04/19 06:20:17;;;;;;;36.30;32.40;;;15.50;76.60;;;;;;4986506;28;20034;-67
2022/04/19 06:22:44;;;;;;;36.60;32.10;;;15.60;76.40;;;;;;4993286;28;20502;-62
2022/04/19 06:25:10;;;;;;;34.72;30.92;;;15.60;76.20;;;;;;4991707;28;20030;-65
2022/04/19 06:27:36;;;;;;;38.63;34.75;;;15.70;76.30;;;;;;4977917;28;20030;-59
2022/04/19 06:30:02;;;;;;;37.63;33.60;;;15.70;77.00;;;;;;4984173;28;20034;-54
2022/04/19 06:32:28;;;;;;;36.65;32.70;;;15.70;76.50;;;;;;5009452;28;20033;-61
2022/04/19 06:34:54;;;;;;;36.35;32.58;;;15.70;76.20;;;;;;5003556;28;20133;-65
2022/04/19 06:37:20;;;;;;;35.17;31.38;;;15.70;75.90;;;;;;5015479;28;20028;-67
2022/04/19 06:39:46;;;;;;;37.97;31.92;;;15.80;76.10;;;;;;5015425;28;20026;-67
2022/04/19 06:42:12;;;;;;;33.55;30.05;;;15.90;76.00;;;;;;4994572;28;20076;-67
2022/04/19 06:44:37;;;;;;;35.70;32.03;;;15.90;75.20;;;;;;4991916;28;20380;-68
2022/04/19 06:47:04;;;;;;;36.35;32.55;;;16.00;75.50;;;;;;4992846;28;20077;-66
2022/04/19 06:49:30;;;;;;;39.80;35.78;;;16.00;76.30;;;;;;4994581;28;20438;-63
2022/04/19 06:51:55;;;;;;;39.38;35.35;;;16.10;76.60;;;;;;4985089;28;20034;-59
2022/04/19 06:54:21;;;;;;;38.10;33.75;;;16.20;76.10;;;;;;4992774;28;20476;-66
2022/04/19 06:56:46;;;;;;;38.78;31.95;;;16.20;75.90;;;;;;4981566;28;20070;-68
2022/04/19 06:59:13;;;;;;;28.15;25.20;;;16.20;74.90;;;;;;4976960;28;20031;-65
2022/04/19 07:01:40;;;;;;;27.13;22.77;;;16.20;71.30;;;;;;4976816;28;20034;-67
2022/04/19 07:04:08;;;;;;;24.63;21.45;;;16.20;69.20;;;;;;4995484;28;20027;-61
2022/04/19 07:06:34;;;;;;;25.90;22.15;;;16.30;68.60;;;;;;4992880;28;20488;-69
2022/04/19 07:08:59;;;;;;;24.23;21.73;;;16.30;68.30;;;;;;4994402;28;20034;-59
2022/04/19 07:11:25;;;;;;;26.85;21.42;;;16.30;67.60;;;;;;4991701;28;20018;-66
2022/04/19 07:13:51;;;;;;;25.05;20.40;;;16.30;66.80;;;;;;4991886;28;20057;-65
2022/04/19 07:16:16;;;;;;;28.05;22.17;;;16.30;66.60;;;;;;4992448;28;20097;-63
2022/04/19 07:18:42;;;;;;;23.23;20.75;;;16.30;66.80;;;;;;4989878;28;20047;-58
2022/04/19 07:26:38;;;;;;;22.77;18.88;;;16.40;65.20;;;;;;4977628;28;20058;-61
2022/04/19 07:29:15;;;;;;;29.40;20.08;;;16.40;64.90;;;;;;4985138;28;20053;-67
2022/04/19 07:31:43;;;;;;;25.98;19.95;;;16.40;65.10;;;;;;4988234;28;20022;-66
2022/04/19 07:34:09;;;;;;;25.17;20.13;;;16.40;65.50;;;;;;4987708;28;20117;-67
2022/04/19 07:36:37;;;;;;;22.90;20.55;;;16.50;65.70;;;;;;4994365;28;20022;-64
2022/04/19 07:39:06;;;;;;;21.55;19.35;;;16.40;65.40;;;;;;4986490;28;20057;-55
2022/04/19 07:41:32;;;;;;;25.45;20.95;;;16.50;65.20;;;;;;4981176;28;20130;-64
2022/04/19 07:43:58;;;;;;;23.98;19.65;;;16.50;65.30;;;;;;4977736;28;20046;-66
2022/04/19 07:46:24;;;;;;;23.60;19.88;;;16.60;65.70;;;;;;4992743;28;20031;-62
2022/04/19 07:48:51;;;;;;;22.88;19.10;;;16.60;66.00;;;;;;4993207;28;20049;-57
2022/04/19 07:51:18;;;;;;;24.05;18.73;;;16.60;65.20;;;;;;4980880;28;20031;-68
2022/04/19 07:53:43;;;;;;;20.25;18.13;;;16.60;64.70;;;;;;4974592;28;20053;-66
2022/04/19 07:56:09;;;;;;;22.45;17.80;;;16.70;64.40;;;;;;4975171;28;20105;-67
2022/04/19 07:58:35;;;;;;;21.52;17.73;;;16.70;63.80;;;;;;4989705;28;20499;-67
2022/04/19 08:01:01;;;;;;;21.05;18.75;;;16.70;63.40;;;;;;4992279;28;20476;-66
2022/04/19 08:03:26;;;;;;;22.27;17.40;;;16.70;63.40;;;;;;4984592;28;20086;-65
2022/04/19 08:05:52;;;;;;;20.23;16.73;;;16.80;63.10;;;;;;4996844;28;20041;-67
2022/04/19 08:08:18;;;;;;;19.70;16.92;;;16.80;63.00;;;;;;5001747;28;20047;-67
2022/04/19 08:10:45;;;;;;;17.10;15.30;;;16.80;62.90;;;;;;4992728;28;20015;-63
2022/04/19 08:13:10;;;;;;;21.52;15.45;;;16.80;62.70;;;;;;4974889;28;20384;-67
2022/04/19 08:15:36;;;;;;;20.63;15.65;;;16.90;62.10;;;;;;4975341;28;20577;-66
2022/04/19 08:18:02;;;;;;;19.38;16.45;;;16.90;62.60;;;;;;4992159;28;20045;-66
2022/04/19 08:20:28;;;;;;;19.85;15.15;;;16.90;62.20;;;;;;4993458;28;20392;-67
2022/04/19 08:22:53;;;;;;;22.08;15.30;;;17.00;61.80;;;;;;4992247;28;20428;-65
2022/04/19 08:25:19;;;;;;;20.98;14.90;;;16.90;61.60;;;;;;4985638;28;20034;-67
2022/04/19 08:27:45;;;;;;;20.77;15.93;;;17.00;62.00;;;;;;4989834;28;20046;-67
2022/04/19 08:30:13;;;;;;;22.70;15.68;;;17.00;62.10;;;;;;4993567;28;20025;-67
2022/04/19 08:32:39;;;;;;;29.73;16.10;;;17.10;62.20;;;;;;4992147;28;20034;-67
2022/04/19 08:35:05;;;;;;;26.02;14.75;;;17.10;62.60;;;;;;4977499;28;20030;-64
2022/04/19 08:37:32;;;;;;;26.25;14.93;;;17.10;61.50;;;;;;4974390;28;20072;-66
2022/04/19 08:39:58;;;;;;;22.25;14.07;;;17.10;60.50;;;;;;4974503;28;20027;-67
2022/04/19 08:42:24;;;;;;;21.48;14.27;;;17.20;60.90;;;;;;4989498;28;20069;-66
2022/04/19 08:44:50;;;;;;;17.23;13.57;;;17.20;60.60;;;;;;4988350;28;20037;-67
2022/04/19 08:47:16;;;;;;;21.38;14.07;;;17.20;57.90;;;;;;4956092;28;20031;-60
2022/04/19 08:49:42;;;;;;;17.90;12.35;;;17.20;57.70;;;;;;4990617;28;20113;-66
2022/04/19 08:52:11;;;;;;;17.05;12.68;;;17.20;58.50;;;;;;4989804;28;20022;-59
2022/04/19 08:57:31;;;;;;;16.35;11.10;;;17.30;55.10;;;;;;4961212;28;20067;-61
2022/04/19 08:59:58;;;;;;;13.38;10.90;;;17.30;55.20;;;;;;4974784;28;20027;-65
2022/04/19 09:02:28;;;;;;;13.15;10.80;;;17.30;54.70;;;;;;4981930;28;20078;-66
2022/04/19 09:05:10;;;;;;;14.90;11.27;;;17.30;54.30;;;;;;4980745;28;20051;-61
2022/04/19 09:07:37;;;;;;;12.18;10.82;;;17.40;54.50;;;;;;4987153;28;20042;-66
2022/04/19 09:10:03;;;;;;;14.77;10.70;;;17.40;54.10;;;;;;4992471;28;20105;-60
2022/04/19 09:12:29;;;;;;;13.05;10.05;;;17.40;53.80;;;;;;4987876;28;20077;-66
2022/04/19 09:15:03;;;;;;;14.02;10.45;;;17.50;53.30;;;;;;4980785;28;20484;-60
2022/04/19 09:17:41;;;;;;;16.60;10.25;;;17.50;53.00;;;;;;4974057;28;20034;-58
2022/04/19 09:20:15;;;;;;;15.82;10.77;;;17.50;53.50;;;;;;4989085;28;20130;-55
2022/04/19 09:22:42;;;;;;;17.52;11.20;;;17.60;53.30;;;;;;4992609;28;20026;-67
2022/04/19 09:25:24;;;;;;;13.60;9.45;;;17.50;53.10;;;;;;4982873;28;20104;-62
2022/04/19 09:27:51;;;;;;;16.23;10.77;;;17.60;56.00;;;;;;4973405;28;20031;-60
2022/04/19 09:30:20;;;;;;;14.40;11.45;;;17.60;52.80;;;;;;4968009;28;20097;-58
2022/04/19 09:33:05;;;;;;;14.90;9.95;;;17.60;53.20;;;;;;4973937;28;20030;-63
2022/04/19 09:35:43;;;;;;;12.15;10.15;;;17.60;54.70;;;;;;4989962;28;20106;-65
2022/04/19 09:38:09;;;;;;;20.13;10.88;;;17.60;53.60;;;;;;4993317;28;20027;-66
2022/04/19 09:40:43;;;;;;;16.30;10.65;;;17.70;53.70;;;;;;4988758;28;20388;-63
2022/04/19 09:43:11;;;;;;;12.18;8.85;;;17.70;52.80;;;;;;4976245;28;20061;-66
2022/04/19 09:45:50;;;;;;;10.95;8.68;;;17.70;52.60;;;;;;4975645;28;20027;-67
2022/04/19 09:48:24;;;;;;;8.38;7.40;;;17.80;51.00;;;;;;4995567;28;20117;-61
2022/04/19 09:51:04;;;;;;;12.82;10.88;;;17.80;51.80;;;;;;4982719;28;20035;-62
2022/04/19 09:53:32;;;;;;;17.63;12.82;;;17.80;52.80;;;;;;4991284;28;20472;-67
2022/04/19 09:55:59;;;;;;;13.32;10.77;;;17.80;53.90;;;;;;4983870;28;20082;-67
2022/04/19 09:58:25;;;;;;;10.52;8.30;;;17.80;54.50;;;;;;4992154;28;20038;-56
2022/04/19 10:00:52;;;;;;;9.60;7.78;;;17.80;51.10;;;;;;4995541;28;20019;-65
2022/04/19 10:08:53;;;;;;;9.32;7.00;;;17.90;50.40;;;;;;4987531;28;20077;-55
2022/04/19 10:11:19;;;;;;;10.38;7.22;;;17.90;50.70;;;;;;4965881;28;20031;-59
2022/04/19 10:13:45;;;;;;;9.93;7.57;;;18.00;49.20;;;;;;4977547;28;20030;-66
2022/04/19 10:16:12;;;;;;;7.60;6.72;;;18.00;48.70;;;;;;4994248;28;20090;-58
2022/04/19 10:18:39;;;;;;;8.07;6.65;;;18.00;49.30;;;;;;4995313;28;20377;-66
2022/04/19 10:21:09;;;;;;;12.25;6.53;;;18.00;49.00;;;;;;4994267;28;20018;-66
2022/04/19 10:23:39;;;;;;;8.73;6.20;;;18.10;48.80;;;;;;4994353;28;20412;-63
2022/04/19 10:26:15;;;;;;;6.50;5.68;;;18.10;48.10;;;;;;4991609;28;20080;-67
2022/04/19 10:28:41;;;;;;;9.65;6.13;;;18.10;48.20;;;;;;4989024;28;20033;-67
2022/04/19 10:31:08;;;;;;;6.57;5.88;;;18.10;48.80;;;;;;4991792;28;20027;-65
2022/04/19 10:33:44;;;;;;;8.98;5.07;;;18.20;46.70;;;;;;4977833;28;20472;-66
2022/04/19 10:36:31;;;;;;;7.45;5.82;;;18.20;46.90;;;;;;4995456;28;20033;-66
2022/04/19 10:39:27;;;;;;;8.32;5.30;;;18.20;46.20;;;;;;4996079;28;20033;-61
2022/04/19 10:42:00;;;;;;;6.93;5.00;;;18.20;46.20;;;;;;4994626;28;20104;-67
2022/04/19 10:44:28;;;;;;;5.32;4.45;;;18.30;44.70;;;;;;4994610;28;20022;-66
2022/04/19 10:47:16;;;;;;;6.20;4.82;;;18.20;45.10;;;;;;4985275;28;20480;-59
2022/04/19 10:50:29;;;;;;;10.43;5.40;;;18.30;45.30;;;;;;4978475;28;20058;-66
2022/04/19 10:53:05;;;;;;;10.00;6.30;;;18.30;46.30;;;;;;4922914;29;20122;-58
2022/04/19 10:55:35;;;;;;;7.93;6.18;;;18.30;45.20;;;;;;4992267;28;20217;-58
2022/04/19 10:58:16;;;;;;;14.85;7.65;;;18.30;44.90;;;;;;4995527;28;20033;-63
2022/04/19 11:00:41;;;;;;;8.15;7.07;;;18.40;45.70;;;;;;4985858;28;20267;-66
2022/04/19 11:03:11;;;;;;;8.32;7.03;;;18.40;45.80;;;;;;4995060;28;20479;-66
2022/04/19 11:05:55;;;;;;;8.75;6.72;;;18.40;45.20;;;;;;4995064;28;20057;-57
2022/04/19 11:08:24;;;;;;;7.70;6.18;;;18.40;45.80;;;;;;4994751;28;20038;-57
2022/04/19 11:11:22;;;;;;;10.18;6.95;;;18.40;46.20;;;;;;4989817;28;20055;-65
2022/04/19 11:14:20;;;;;;;8.55;6.50;;;18.40;47.20;;;;;;4978216;28;20480;-58
2022/04/19 11:17:13;;;;;;;10.82;6.63;;;18.40;47.30;;;;;;4986985;28;20069;-65
2022/04/19 11:19:38;;;;;;;9.27;6.68;;;18.50;46.20;;;;;;4990821;28;20129;-65
2022/04/19 11:22:04;;;;;;;11.50;6.55;;;18.50;44.20;;;;;;4988657;28;20451;-66
2022/04/19 11:25:02;;;;;;;9.73;6.55;;;18.60;43.50;;;;;;4988386;28;20031;-59
2022/04/19 11:27:52;;;;;;;7.22;4.93;;;18.60;43.60;;;;;;4982666;28;20034;-63
2022/04/19 11:30:18;;;;;;;8.25;3.90;;;18.60;48.90;;;;;;4990349;28;20042;-64
2022/04/19 11:32:50;;;;;;;8.07;6.60;;;18.60;47.90;;;;;;4994543;28;20026;-67
2022/04/19 11:35:16;;;;;;;10.48;7.00;;;18.70;44.30;;;;;;4994620;28;20030;-67
2022/04/19 11:37:43;;;;;;;9.82;6.18;;;18.70;44.80;;;;;;4993137;28;20022;-64
2022/04/19 11:48:38;;;;;;;8.60;6.25;;;18.80;45.80;;;;;;4994196;28;20061;-58
2022/04/19 11:51:12;;;;;;;7.10;6.35;;;18.70;46.00;;;;;;4992526;28;20433;-58
2022/04/19 11:53:38;;;;;;;8.55;5.82;;;18.80;46.30;;;;;;4993203;28;20086;-66
2022/04/19 11:56:06;;;;;;;8.88;6.40;;;18.80;47.30;;;;;;4993995;28;20076;-63
2022/04/19 11:58:32;;;;;;;9.25;7.13;;;18.80;46.40;;;;;;4991911;28;20026;-61
2022/04/19 12:01:09;;;;;;;11.70;6.88;;;18.80;46.60;;;;;;4990236;28;20042;-59
2022/04/19 12:03:36;;;;;;;8.38;6.78;;;18.90;46.30;;;;;;4986638;28;20022;-59
2022/04/19 12:06:14;;;;;;;10.93;6.90;;;18.90;46.50;;;;;;4988883;28;20030;-62
2022/04/19 12:08:51;;;;;;;11.63;7.07;;;18.90;46.60;;;;;;4991356;28;20173;-66
2022/04/19 12:11:29;;;;;;;8.68;6.65;;;19.00;46.40;;;;;;4993726;28;20423;-62
2022/04/19 12:13:56;;;;;;;8.00;4.90;;;18.90;46.70;;;;;;4993325;28;20388;-63
2022/04/19 12:16:39;;;;;;;8.05;5.00;;;18.90;48.40;;;;;;4993006;28;20018;-58
2022/04/19 12:19:07;;;;;;;7.88;5.28;;;19.00;50.10;;;;;;4993068;28;20492;-67
2022/04/19 12:21:43;;;;;;;6.93;5.45;;;18.90;49.50;;;;;;4992586;28;20393;-65
2022/04/19 12:24:21;;;;;;;8.82;7.43;;;18.90;48.50;;;;;;4993022;28;20033;-63
2022/04/19 12:27:06;;;;;;;10.90;7.75;;;19.00;46.40;;;;;;4988361;28;20023;-61
2022/04/19 12:29:37;;;;;;;11.93;8.70;;;19.00;47.70;;;;;;4993187;28;20030;-66
2022/04/19 12:32:04;;;;;;;9.18;6.68;;;19.10;47.10;;;;;;4992387;28;20419;-57
2022/04/19 12:34:33;;;;;;;10.38;8.25;;;19.00;47.10;;;;;;4993527;28;20030;-66
2022/04/19 12:37:12;;;;;;;8.90;6.38;;;19.10;46.90;;;;;;4991940;28;20030;-66
2022/04/19 12:39:37;;;;;;;7.97;6.15;;;19.10;47.50;;;;;;4989516;28;20030;-66
2022/04/19 12:42:08;;;;;;;11.05;8.70;;;19.10;49.70;;;;;;4989358;28;20025;-65
2022/04/19 12:44:35;;;;;;;12.18;8.70;;;19.10;47.00;;;;;;4992451;28;20034;-64
2022/04/19 12:47:08;;;;;;;10.55;8.25;;;19.10;46.80;;;;;;4999283;28;20333;-66
2022/04/19 12:49:45;;;;;;;11.25;7.93;;;19.20;46.60;;;;;;4993267;28;20092;-57
2022/04/19 12:52:11;;;;;;;9.98;7.72;;;19.20;46.80;;;;;;4987922;28;20042;-66
2022/04/19 12:54:47;;;;;;;9.07;7.72;;;19.10;46.70;;;;;;4992996;28;20034;-66
2022/04/19 12:57:13;;;;;;;9.40;7.22;;;19.20;47.60;;;;;;4990663;28;20416;-60
2022/04/19 12:59:40;;;;;;;4.75;3.67;;;19.20;47.80;;;;;;4989423;28;20076;-67
2022/04/19 13:02:05;;;;;;;7.97;5.10;;;19.20;51.00;;;;;;4992830;28;20113;-61
2022/04/19 13:04:31;;;;;;;14.57;8.45;;;19.20;48.90;;;;;;4991506;28;20504;-62
2022/04/19 13:12:32;;;;;;;12.65;8.10;;;19.20;46.50;;;;;;4988480;28;20395;-67
2022/04/19 13:15:00;;;;;;;10.32;7.75;;;19.20;44.90;;;;;;4992195;28;20023;-65
2022/04/19 13:17:30;;;;;;;8.90;5.72;;;19.30;45.40;;;;;;4992761;28;20023;-66